Terminal Aerodrome Forecast
Issued by NWS Oklahoma City, OK

Current Version | Previous Version | Text Only | Print | Product List | Glossary On
Versions: 1 2 3 4 5 6 7 8 9 10 11 12
000
FTUS44 KOUN 211725
TAFOUN
TAF
KOUN 211725Z 2118/2218 19011G17KT P6SM SCT070 SCT250
     FM220000 15010KT P6SM BKN150
     FM221300 21009KT P6SM OVC080=

USA.gov is the U.S. government's official web portal to all federal, state and local government web resources and services.